TJSJ

Luis Munoz Marin International Airport

San Juan, Puerto Rico, USA
TJSJ 221738Z 2218/2318 07015KT P6SM VCSH FEW035 SCT090 SCT120 FM222200 09008KT P6SM FEW030 SCT060 FM231300 07012KT P6SM SCT025
Issued Valid From Valid To
Jul-22 @ 17:38 UTC
(3 hours ago)
Jul-22 @ 18:00 UTC
(2 hours ago)
Jul-23 @ 18:00 UTC
(in 22 hours)
Jul-22 @ 18:00 to Jul-22 @ 22:00
TJSJ 221738Z 2218/2318 07015KT P6SM VCSH FEW035 SCT090 SCT120
Wind Visibility Clouds
70° at 15 knots Greater than 6 miles
  • Few at 3,500' AGL
  • Scattered at 9,000' AGL
  • Scattered at 12,000' AGL
From Jul-22 @ 22:00 to Jul-23 @ 13:00
FM222200 09008KT P6SM FEW030 SCT060
Wind Visibility Clouds
90° at 8 knots Greater than 6 miles
  • Few at 3,000' AGL
  • Scattered at 6,000' AGL
From Jul-23 @ 13:00 to Jul-23 @ 18:00
FM231300 07012KT P6SM SCT025
Wind Visibility Clouds
70° at 12 knots Greater than 6 miles
  • Scattered at 2,500' AGL
TJSJ 221738Z 2218/2318 07015KT P6SM VCSH FEW035 SCT090 SCT120 FM222200 09008KT P6SM FEW030 SCT060 FM231300 07012KT P6SM SCT025
Issued Jul-22 @ 17:38 UTC
(3 hours ago)
Valid From Jul-22 @ 18:00 UTC
(2 hours ago)
Valid To Jul-23 @ 18:00 UTC
(in 22 hours)
Jul-22 @ 18:00 - Jul-22 @ 22:00
Wind Visibility
70° at 15 knots Greater than 6 miles
Clouds
  • Few at 3,500' AGL
  • Scattered at 9,000' AGL
  • Scattered at 12,000' AGL
From Jul-22 @ 22:00 - Jul-23 @ 13:00
Wind Visibility
90° at 8 knots Greater than 6 miles
Clouds
  • Few at 3,000' AGL
  • Scattered at 6,000' AGL
From Jul-23 @ 13:00 - Jul-23 @ 18:00
Wind Visibility
70° at 12 knots Greater than 6 miles
Clouds
  • Scattered at 2,500' AGL